createdAt,value
2023-03-02T00:03:18.222Z,3.30
2023-03-02T00:08:21.708Z,3.30
2023-03-02T00:13:26.966Z,3.30
2023-03-02T00:18:30.467Z,3.30
2023-03-02T00:23:33.932Z,3.30
2023-03-02T00:28:38.707Z,3.20
2023-03-02T00:33:42.129Z,3.20
2023-03-02T00:38:45.702Z,3.10
2023-03-02T00:43:51.306Z,3.20
2023-03-02T00:48:54.733Z,3.10
2023-03-02T00:53:58.205Z,3.10
2023-03-02T00:59:11.175Z,3.00
2023-03-02T01:04:14.599Z,3.00
2023-03-02T01:09:18.221Z,3.00
2023-03-02T01:14:25.350Z,3.00
2023-03-02T01:19:28.868Z,2.90
2023-03-02T01:24:33.704Z,2.90
2023-03-02T01:29:39.089Z,2.80
2023-03-02T01:34:42.880Z,2.80
2023-03-02T01:39:46.292Z,2.80
2023-03-02T01:44:54.192Z,2.80
2023-03-02T01:50:02.495Z,2.70
2023-03-02T01:55:09.166Z,2.50
2023-03-02T02:00:19.512Z,2.50
2023-03-02T02:05:26.965Z,2.50
2023-03-02T02:10:32.026Z,2.50
2023-03-02T02:15:37.310Z,2.50
2023-03-02T02:20:42.831Z,2.40
2023-03-02T02:25:59.423Z,2.40
2023-03-02T02:31:09.211Z,2.40
2023-03-02T02:36:18.502Z,2.30
2023-03-02T02:41:28.482Z,2.40
2023-03-02T02:46:33.801Z,2.40
2023-03-02T02:51:37.809Z,2.40
2023-03-02T02:56:44.430Z,2.40
2023-03-02T03:01:48.708Z,2.30
2023-03-02T03:06:54.105Z,2.20
2023-03-02T03:12:04.155Z,2.20
2023-03-02T03:17:12.707Z,2.20
2023-03-02T03:22:17.682Z,2.20
2023-03-02T03:27:22.413Z,2.20
2023-03-02T03:32:25.902Z,2.10
2023-03-02T03:37:29.372Z,2.00
2023-03-02T03:42:34.129Z,2.00
2023-03-02T03:47:37.704Z,2.00
2023-03-02T03:52:41.375Z,1.90
2023-03-02T03:57:46.371Z,1.90
2023-03-02T04:02:50.392Z,1.80
2023-03-02T04:07:54.368Z,1.90
2023-03-02T04:12:59.453Z,1.90
2023-03-02T04:18:03.144Z,1.90
2023-03-02T04:23:06.618Z,1.90
2023-03-02T04:28:11.693Z,1.90
2023-03-02T04:33:15.218Z,1.80
2023-03-02T04:38:18.728Z,1.60
2023-03-02T04:43:23.547Z,1.40
2023-03-02T04:48:27.217Z,1.30
2023-03-02T04:53:30.873Z,1.30
2023-03-02T04:58:35.901Z,1.30
2023-03-02T05:03:39.369Z,1.40
2023-03-02T05:08:42.993Z,1.40
2023-03-02T05:13:47.878Z,1.40
2023-03-02T05:18:51.807Z,1.30
2023-03-02T05:23:55.811Z,1.40
2023-03-02T05:29:00.603Z,1.40
2023-03-02T05:34:04.885Z,1.40
2023-03-02T05:39:08.960Z,1.50
2023-03-02T05:44:13.742Z,1.50
2023-03-02T05:49:17.216Z,1.50
2023-03-02T05:54:20.957Z,1.50
2023-03-02T05:59:25.799Z,1.50
2023-03-02T06:04:29.214Z,1.50
2023-03-02T06:09:32.644Z,1.50
2023-03-02T06:14:38.124Z,1.60
2023-03-02T06:19:42.163Z,1.60
2023-03-02T06:24:45.657Z,1.70
2023-03-02T06:29:50.449Z,1.70
2023-03-02T06:34:53.877Z,1.80
2023-03-02T06:39:57.559Z,1.70
2023-03-02T06:45:02.545Z,1.70
2023-03-02T06:50:07.354Z,1.80
2023-03-02T06:55:11.442Z,1.80
2023-03-02T07:00:17.814Z,2.00
2023-03-02T07:05:21.278Z,2.00
2023-03-02T07:10:24.706Z,2.20
2023-03-02T07:15:29.846Z,2.30
2023-03-02T07:20:34.544Z,2.30
2023-03-02T07:25:38.102Z,2.50
2023-03-02T07:30:43.244Z,2.50
2023-03-02T07:35:47.240Z,2.60
2023-03-02T07:40:50.689Z,2.70
2023-03-02T07:45:55.506Z,2.80
2023-03-02T07:50:59.981Z,2.90
2023-03-02T07:56:08.023Z,3.00
2023-03-02T08:01:13.138Z,3.10
2023-03-02T08:06:16.552Z,3.20
2023-03-02T08:11:20.641Z,3.20
2023-03-02T08:16:26.506Z,3.30
2023-03-02T08:21:30.759Z,3.30
2023-03-02T08:26:34.296Z,3.40
2023-03-02T08:31:39.399Z,3.50
2023-03-02T08:36:44.057Z,3.60
2023-03-02T08:41:47.534Z,3.70
2023-03-02T08:46:52.914Z,3.80
2023-03-02T08:51:56.731Z,3.90
2023-03-02T08:57:00.140Z,4.00
2023-03-02T09:02:05.127Z,4.20
2023-03-02T09:07:08.573Z,4.20
2023-03-02T09:12:12.138Z,4.40
2023-03-02T09:17:17.378Z,4.40
2023-03-02T09:22:21.191Z,4.50
2023-03-02T09:27:24.663Z,4.60
2023-03-02T09:32:29.618Z,4.70
2023-03-02T09:37:33.155Z,4.80
2023-03-02T09:43:00.016Z,4.90
2023-03-02T09:48:16.395Z,5.00
2023-03-02T09:53:35.291Z,5.10
2023-03-02T09:58:42.634Z,5.30
2023-03-02T10:03:56.715Z,5.40
2023-03-02T10:09:00.313Z,5.50
2023-03-02T10:14:08.136Z,5.60
2023-03-02T10:19:17.479Z,5.70
2023-03-02T10:24:31.425Z,5.80
2023-03-02T10:29:46.035Z,5.90
2023-03-02T10:34:52.184Z,6.00
2023-03-02T10:39:56.010Z,6.20
2023-03-02T10:45:07.369Z,6.30
2023-03-02T10:50:23.276Z,6.40
2023-03-02T10:55:27.029Z,6.50
2023-03-02T11:00:32.002Z,6.70
2023-03-02T11:05:38.945Z,6.80
2023-03-02T11:10:52.196Z,6.90
2023-03-02T11:15:59.662Z,7.10
2023-03-02T11:21:06.932Z,7.20
2023-03-02T11:26:22.306Z,7.40
2023-03-02T11:31:33.910Z,7.50
2023-03-02T11:36:46.425Z,7.70
2023-03-02T11:41:50.627Z,7.90
2023-03-02T11:47:01.072Z,8.00
2023-03-02T11:52:06.144Z,8.20
2023-03-02T11:57:22.145Z,8.40
2023-03-02T12:02:26.669Z,8.50
2023-03-02T12:07:31.551Z,8.60
2023-03-02T12:12:44.122Z,8.80
2023-03-02T12:17:47.798Z,9.00
2023-03-02T12:22:52.684Z,9.10
2023-03-02T12:27:56.716Z,9.20
2023-03-02T12:33:04.530Z,9.40
2023-03-02T12:38:29.187Z,9.60
2023-03-02T12:43:33.667Z,9.80
2023-03-02T12:48:43.289Z,10.00
2023-03-02T12:53:49.240Z,10.20
2023-03-02T12:58:54.403Z,10.30
2023-03-02T13:03:58.172Z,10.50
2023-03-02T13:09:03.249Z,10.70
2023-03-02T13:14:20.298Z,10.80
2023-03-02T13:19:24.318Z,11.00
2023-03-02T13:24:33.923Z,11.10
2023-03-02T13:29:37.709Z,11.20
2023-03-02T13:34:49.493Z,11.40
2023-03-02T13:39:58.983Z,11.60
2023-03-02T13:45:15.963Z,11.70
2023-03-02T13:50:21.051Z,11.80
2023-03-02T13:55:26.657Z,11.90
2023-03-02T14:00:33.382Z,12.00
2023-03-02T14:05:36.891Z,12.10
2023-03-02T14:10:42.471Z,12.20
2023-03-02T14:15:50.291Z,12.20
2023-03-02T14:20:53.823Z,12.20
2023-03-02T14:25:59.952Z,12.30
2023-03-02T14:31:03.655Z,12.40
2023-03-02T14:36:07.833Z,12.40
2023-03-02T14:41:16.579Z,12.50
2023-03-02T14:46:20.307Z,12.40
2023-03-02T14:51:26.936Z,12.40
2023-03-02T14:56:31.786Z,12.40
2023-03-02T15:01:35.748Z,12.40
2023-03-02T15:06:40.988Z,12.30
2023-03-02T15:11:46.316Z,12.20
2023-03-02T15:16:49.976Z,12.10
2023-03-02T15:21:53.350Z,12.00
2023-03-02T15:26:58.096Z,11.90
2023-03-02T15:32:01.581Z,11.70
2023-03-02T15:37:05.012Z,11.60
2023-03-02T15:42:10.785Z,11.50
2023-03-02T15:47:15.685Z,11.40
2023-03-02T15:52:20.001Z,11.20
2023-03-02T15:57:24.764Z,11.20
2023-03-02T16:02:28.541Z,11.10
2023-03-02T16:07:32.017Z,11.00
2023-03-02T16:12:36.797Z,11.00
2023-03-02T16:17:40.180Z,10.90
2023-03-02T16:22:43.590Z,10.80
2023-03-02T16:27:48.335Z,10.70
2023-03-02T16:32:52.321Z,10.60
2023-03-02T16:37:55.995Z,10.40
2023-03-02T16:43:00.814Z,10.20
2023-03-02T16:48:04.369Z,10.10
2023-03-02T16:53:07.763Z,10.00
2023-03-02T16:58:12.759Z,9.90
2023-03-02T17:03:16.238Z,9.70
2023-03-02T17:08:19.646Z,9.60
2023-03-02T17:13:24.366Z,9.50
2023-03-02T17:18:28.772Z,9.20
2023-03-02T17:23:32.281Z,9.00
2023-03-02T17:28:36.971Z,8.70
2023-03-02T17:33:40.881Z,8.50
2023-03-02T17:38:44.316Z,8.30
2023-03-02T17:43:49.051Z,8.10
2023-03-02T17:48:54.698Z,7.90
2023-03-02T17:53:58.531Z,7.80
2023-03-02T17:59:05.185Z,7.70
2023-03-02T18:04:08.697Z,7.60
2023-03-02T18:09:12.228Z,7.40
2023-03-02T18:14:19.621Z,7.10
2023-03-02T18:19:23.498Z,7.00
2023-03-02T18:24:27.314Z,6.90
2023-03-02T18:29:32.673Z,6.80
2023-03-02T18:34:36.360Z,6.70
2023-03-02T18:39:40.108Z,6.50
2023-03-02T18:44:45.118Z,6.40
2023-03-02T18:49:49.776Z,6.20
2023-03-02T18:54:57.444Z,6.20
2023-03-02T19:00:02.232Z,6.10
2023-03-02T19:05:06.024Z,5.90
2023-03-02T19:10:10.718Z,5.80
2023-03-02T19:15:15.953Z,5.80
2023-03-02T19:20:21.016Z,5.70
2023-03-02T19:25:24.480Z,5.60
2023-03-02T19:30:29.561Z,5.50
2023-03-02T19:35:33.971Z,5.30
2023-03-02T19:40:38.346Z,5.20
2023-03-02T19:45:43.451Z,5.20
2023-03-02T19:50:47.113Z,5.20
2023-03-02T19:55:51.508Z,5.20
2023-03-02T20:00:56.533Z,5.20
2023-03-02T20:05:59.996Z,5.10
2023-03-02T20:11:03.493Z,5.00
2023-03-02T20:16:09.179Z,5.00
2023-03-02T20:21:12.865Z,5.00
2023-03-02T20:26:16.552Z,5.00
2023-03-02T20:31:21.621Z,5.00
2023-03-02T20:36:28.627Z,5.00
2023-03-02T20:41:32.765Z,5.00
2023-03-02T20:46:41.615Z,5.00
2023-03-02T20:51:52.796Z,5.00
2023-03-02T20:56:56.340Z,5.00
2023-03-02T21:02:01.526Z,4.90
2023-03-02T21:07:05.032Z,4.90
2023-03-02T21:12:11.850Z,5.00
2023-03-02T21:17:17.038Z,5.10
2023-03-02T21:22:20.708Z,5.00
2023-03-02T21:27:24.288Z,4.90
2023-03-02T21:32:29.019Z,4.90
2023-03-02T21:37:32.754Z,4.90
2023-03-02T21:42:36.284Z,4.90
2023-03-02T21:47:42.219Z,4.90
2023-03-02T21:52:45.700Z,5.00
2023-03-02T21:57:49.421Z,5.10
2023-03-02T22:02:54.462Z,5.20
2023-03-02T22:07:58.388Z,5.30
2023-03-02T22:13:17.419Z,5.30
2023-03-02T22:18:25.842Z,5.40
2023-03-02T22:23:29.266Z,5.50
2023-03-02T22:28:34.176Z,5.50
2023-03-02T22:33:41.164Z,5.40
2023-03-02T22:38:44.542Z,5.50
2023-03-02T22:43:49.493Z,5.50
2023-03-02T22:48:55.154Z,5.50
2023-03-02T22:54:00.634Z,5.50
2023-03-02T22:59:10.206Z,5.50
2023-03-02T23:04:19.872Z,5.50
2023-03-02T23:09:25.557Z,5.50
2023-03-02T23:14:30.660Z,5.50
2023-03-02T23:19:35.501Z,5.50
2023-03-02T23:24:38.864Z,5.40
2023-03-02T23:29:42.249Z,5.40
2023-03-02T23:34:47.052Z,5.40
2023-03-02T23:39:50.654Z,5.40
2023-03-02T23:44:55.613Z,5.30
2023-03-02T23:50:00.405Z,5.30
2023-03-02T23:55:03.995Z,5.40
